Time;durP1;ratioP1;P1;durP2;ratioP2;P2;SDS_P1;SDS_P2;PMS_P1;PMS_P2;Temp;Humidity;BMP_temperature;BMP_pressure;BME280_temperature;BME280_humidity;BME280_pressure;Samples;Min_cycle;Max_cycle;Signal;HPM_P1;HPM_P2
2022/11/15 00:00:33;;;;;;;3.27;2.40;;;;;;;;;;4954807;28;21745;-56
2022/11/15 00:02:59;;;;;;;5.13;2.43;;;;;;;;;;4954328;28;20477;-53
2022/11/15 00:05:25;;;;;;;3.87;2.60;;;;;;;;;;4927509;28;20538;-58
2022/11/15 00:07:51;;;;;;;3.03;2.63;;;;;;;;;;4955545;28;20504;-54
2022/11/15 00:10:16;;;;;;;3.77;2.47;;;;;;;;;;4950879;28;20454;-59
2022/11/15 00:12:42;;;;;;;3.70;2.00;;;;;;;;;;4955281;28;20438;-53
2022/11/15 00:15:08;;;;;;;3.70;2.27;;;;;;;;;;4913351;28;20459;-54
2022/11/15 00:17:34;;;;;;;4.90;2.90;;;;;;;;;;4956260;28;21419;-54
2022/11/15 00:20:00;;;;;;;4.00;2.10;;;;;;;;;;4937395;28;20449;-55
2022/11/15 00:22:31;;;;;;;2.93;2.10;;;;;;;;;;4957576;28;20515;-56
2022/11/15 00:24:57;;;;;;;5.77;2.27;;;;;;;;;;4935589;28;21444;-54
2022/11/15 00:27:23;;;;;;;2.37;1.70;;;;;;;;;;4953459;28;20439;-60
2022/11/15 00:29:49;;;;;;;2.83;1.93;;;;;;;;;;4946679;28;20435;-57
2022/11/15 00:32:15;;;;;;;3.87;3.23;;;;;;;;;;4952697;28;20537;-64
2022/11/15 00:34:41;;;;;;;3.30;1.93;;;;;;;;;;4925023;28;20461;-54
2022/11/15 00:37:07;;;;;;;4.40;2.30;;;;;;;;;;4958784;28;20442;-56
2022/11/15 00:39:33;;;;;;;3.20;2.17;;;;;;;;;;4959706;28;20430;-59
2022/11/15 00:41:59;;;;;;;3.67;2.17;;;;;;;;;;4958034;28;20490;-54
2022/11/15 00:44:25;;;;;;;3.90;2.00;;;;;;;;;;4934028;28;21302;-56
2022/11/15 00:46:51;;;;;;;3.77;1.60;;;;;;;;;;4945347;28;21119;-56
2022/11/15 00:49:17;;;;;;;3.63;2.00;;;;;;;;;;4955389;28;20446;-58
2022/11/15 00:51:43;;;;;;;4.37;3.00;;;;;;;;;;4949942;28;20477;-55
2022/11/15 00:54:09;;;;;;;2.43;1.70;;;;;;;;;;4952388;28;20203;-58
2022/11/15 00:56:35;;;;;;;6.37;2.40;;;;;;;;;;4954234;28;20438;-54
2022/11/15 00:59:01;;;;;;;4.60;1.97;;;;;;;;;;4949728;28;20445;-57
2022/11/15 01:01:27;;;;;;;2.13;1.77;;;;;;;;;;4948557;28;20740;-57
2022/11/15 01:03:53;;;;;;;2.80;2.17;;;;;;;;;;4930826;28;20924;-57
2022/11/15 01:06:19;;;;;;;2.90;2.23;;;;;;;;;;4940771;28;21117;-56
2022/11/15 01:08:45;;;;;;;3.30;2.47;;;;;;;;;;4960164;28;20524;-56
2022/11/15 01:11:11;;;;;;;4.87;2.40;;;;;;;;;;4932746;28;20445;-55
2022/11/15 01:13:37;;;;;;;2.60;2.40;;;;;;;;;;4955726;28;20450;-55
2022/11/15 01:16:07;;;;;;;7.60;3.20;;;;;;;;;;4933250;28;20936;-55
2022/11/15 01:18:33;;;;;;;5.37;3.20;;;;;;;;;;4956880;28;21128;-55
2022/11/15 01:20:59;;;;;;;4.83;2.40;;;;;;;;;;4910289;28;20466;-56
2022/11/15 01:23:25;;;;;;;5.83;3.00;;;;;;;;;;4958560;28;20484;-55
2022/11/15 01:25:51;;;;;;;3.93;2.60;;;;;;;;;;4913577;28;20496;-56
2022/11/15 01:28:17;;;;;;;2.60;2.40;;;;;;;;;;4951364;28;20449;-56
2022/11/15 01:30:43;;;;;;;2.60;2.10;;;;;;;;;;4929194;28;21368;-55
2022/11/15 01:33:09;;;;;;;6.63;2.30;;;;;;;;;;4955993;28;20442;-56
2022/11/15 01:35:38;;;;;;;3.20;2.60;;;;;;;;;;4932511;28;21766;-56
2022/11/15 01:38:04;;;;;;;4.33;2.00;;;;;;;;;;4954360;28;20440;-55
2022/11/15 01:40:30;;;;;;;2.90;1.90;;;;;;;;;;4929320;28;20454;-56
2022/11/15 01:42:56;;;;;;;2.23;1.80;;;;;;;;;;4959194;28;20474;-56
2022/11/15 01:45:22;;;;;;;3.70;2.30;;;;;;;;;;4932109;28;20465;-55
2022/11/15 01:47:52;;;;;;;3.97;2.50;;;;;;;;;;4953146;28;20649;-55
2022/11/15 01:50:21;;;;;;;3.53;2.63;;;;;;;;;;4949522;28;20469;-55
2022/11/15 01:52:46;;;;;;;3.37;2.40;;;;;;;;;;4942612;28;20518;-55
2022/11/15 01:55:23;;;;;;;3.97;2.40;;;;;;;;;;4917975;28;20442;-56
2022/11/15 01:57:50;;;;;;;3.17;2.40;;;;;;;;;;4956192;28;20449;-55
2022/11/15 02:00:17;;;;;;;3.07;1.70;;;;;;;;;;4918733;28;20510;-55
2022/11/15 02:02:43;;;;;;;6.77;2.30;;;;;;;;;;4939085;28;20481;-55
2022/11/15 02:05:09;;;;;;;3.70;2.50;;;;;;;;;;4939314;28;20445;-55
2022/11/15 02:07:35;;;;;;;2.93;1.93;;;;;;;;;;4959062;28;20978;-55
2022/11/15 02:10:06;;;;;;;3.03;1.77;;;;;;;;;;4937667;28;20450;-56
2022/11/15 02:12:32;;;;;;;5.40;2.20;;;;;;;;;;4954916;28;20505;-55
2022/11/15 02:14:58;;;;;;;2.27;1.80;;;;;;;;;;4935200;28;20448;-54
2022/11/15 02:17:30;;;;;;;3.07;1.90;;;;;;;;;;4962473;28;21024;-55
2022/11/15 02:20:15;;;;;;;4.13;2.63;;;;;;;;;;4954057;28;23675;-55
2022/11/15 02:22:47;;;;;;;2.40;2.00;;;;;;;;;;4957328;28;20999;-56
2022/11/15 02:25:16;;;;;;;3.47;2.03;;;;;;;;;;4916816;28;20442;-56
2022/11/15 02:27:52;;;;;;;3.70;2.57;;;;;;;;;;4953234;28;20441;-55
2022/11/15 02:30:21;;;;;;;4.53;2.13;;;;;;;;;;4900158;28;20596;-55
2022/11/15 02:32:55;;;;;;;4.70;2.40;;;;;;;;;;4961597;28;20533;-55
2022/11/15 02:35:24;;;;;;;4.00;2.33;;;;;;;;;;4937739;28;20523;-55
2022/11/15 02:37:57;;;;;;;6.37;3.40;;;;;;;;;;4957953;28;20445;-55
2022/11/15 02:40:28;;;;;;;3.83;2.50;;;;;;;;;;4916692;28;20982;-56
2022/11/15 02:45:45;;;;;;;3.00;1.93;;;;;;;;;;4912701;28;20591;-54
2022/11/15 02:48:11;;;;;;;3.30;2.83;;;;;;;;;;4937333;28;20480;-55
2022/11/15 02:50:36;;;;;;;3.30;2.40;;;;;;;;;;4950513;28;20430;-55
2022/11/15 02:53:03;;;;;;;2.83;2.00;;;;;;;;;;4946341;28;20437;-55
2022/11/15 02:55:30;;;;;;;4.50;2.73;;;;;;;;;;4952314;28;20439;-54
2022/11/15 02:58:00;;;;;;;4.40;2.27;;;;;;;;;;4958901;28;20460;-55
2022/11/15 03:00:26;;;;;;;2.90;1.90;;;;;;;;;;4954500;28;20522;-56
2022/11/15 03:03:11;;;;;;;3.73;2.43;;;;;;;;;;4939133;28;21420;-55
2022/11/15 03:05:49;;;;;;;2.73;1.80;;;;;;;;;;4909127;28;20929;-54
2022/11/15 03:08:33;;;;;;;5.43;2.40;;;;;;;;;;4955814;28;20456;-55
2022/11/15 03:11:09;;;;;;;4.60;2.27;;;;;;;;;;4916714;28;20901;-54
2022/11/15 03:13:46;;;;;;;2.53;2.33;;;;;;;;;;4940619;28;20449;-55
2022/11/15 03:16:15;;;;;;;3.30;1.90;;;;;;;;;;4905773;28;20497;-55
2022/11/15 03:18:42;;;;;;;2.87;2.30;;;;;;;;;;4940020;28;20962;-55
2022/11/15 03:21:09;;;;;;;4.67;2.00;;;;;;;;;;4951010;28;20462;-55
2022/11/15 03:23:35;;;;;;;2.13;1.93;;;;;;;;;;4959188;28;20486;-55
2022/11/15 03:26:01;;;;;;;2.97;1.83;;;;;;;;;;4935612;28;20585;-55
2022/11/15 03:28:34;;;;;;;2.33;1.90;;;;;;;;;;4943105;28;20522;-55
2022/11/15 03:31:00;;;;;;;2.63;2.00;;;;;;;;;;4936789;28;20469;-54
2022/11/15 03:33:26;;;;;;;3.10;2.20;;;;;;;;;;4952025;28;20438;-55
2022/11/15 03:35:52;;;;;;;2.47;2.23;;;;;;;;;;4899912;28;20512;-55
2022/11/15 03:38:27;;;;;;;3.83;2.37;;;;;;;;;;4944368;28;20529;-55
2022/11/15 03:41:00;;;;;;;2.90;2.17;;;;;;;;;;4940194;28;20190;-53
2022/11/15 03:43:41;;;;;;;3.90;1.77;;;;;;;;;;4960092;28;20533;-55
2022/11/15 03:46:14;;;;;;;3.07;2.30;;;;;;;;;;4931729;28;20445;-56
2022/11/15 03:48:41;;;;;;;6.53;2.30;;;;;;;;;;4957187;28;20465;-55
2022/11/15 03:51:07;;;;;;;3.20;2.17;;;;;;;;;;4939691;28;20441;-56
2022/11/15 03:53:33;;;;;;;4.10;2.20;;;;;;;;;;4944497;28;20442;-56
2022/11/15 03:55:59;;;;;;;2.20;1.80;;;;;;;;;;4937266;28;20504;-54
2022/11/15 03:58:24;;;;;;;2.83;1.87;;;;;;;;;;4957099;28;20458;-55
2022/11/15 04:00:50;;;;;;;3.57;2.13;;;;;;;;;;4951061;28;20500;-54
2022/11/15 04:03:16;;;;;;;4.07;3.60;;;;;;;;;;4958081;28;20464;-55
2022/11/15 04:05:42;;;;;;;4.70;2.20;;;;;;;;;;4913976;28;20454;-55
2022/11/15 04:08:08;;;;;;;4.93;2.33;;;;;;;;;;4956490;28;20482;-56
2022/11/15 04:10:34;;;;;;;4.53;3.17;;;;;;;;;;4958830;28;20438;-54
2022/11/15 04:13:02;;;;;;;5.03;2.50;;;;;;;;;;4958958;28;20189;-53
2022/11/15 04:15:29;;;;;;;4.40;2.37;;;;;;;;;;4926127;28;22661;-54
2022/11/15 04:17:55;;;;;;;3.77;2.33;;;;;;;;;;4959379;28;20799;-54
2022/11/15 04:26:03;;;;;;;2.80;2.20;;;;;;;;;;4950206;28;20445;-54
2022/11/15 04:28:30;;;;;;;3.10;2.60;;;;;;;;;;4954494;28;21121;-55
2022/11/15 04:30:55;;;;;;;3.40;2.43;;;;;;;;;;4948316;28;20434;-53
2022/11/15 04:33:21;;;;;;;3.20;2.53;;;;;;;;;;4958961;28;20434;-54
2022/11/15 04:37:11;;;;;;;3.40;2.43;;;;;;;;;;4914636;28;21113;-54
2022/11/15 04:38:33;;;;;;;2.00;1.63;;;;;;;;;;4948967;28;20517;-55
2022/11/15 04:40:59;;;;;;;6.80;2.70;;;;;;;;;;4949982;28;20438;-54
2022/11/15 04:43:25;;;;;;;2.33;2.13;;;;;;;;;;4959300;28;20449;-55
2022/11/15 04:45:51;;;;;;;2.20;2.00;;;;;;;;;;4950086;28;20434;-54
2022/11/15 04:48:17;;;;;;;2.47;2.20;;;;;;;;;;4958035;28;20813;-55
2022/11/15 04:50:43;;;;;;;3.80;3.13;;;;;;;;;;4907772;28;21276;-54
2022/11/15 04:53:09;;;;;;;3.77;2.63;;;;;;;;;;4956478;28;20533;-54
2022/11/15 04:55:35;;;;;;;2.90;2.60;;;;;;;;;;4941258;28;20456;-54
2022/11/15 04:58:01;;;;;;;6.13;2.87;;;;;;;;;;4947917;28;20442;-54
2022/11/15 05:00:27;;;;;;;2.40;2.20;;;;;;;;;;4948767;28;20451;-54
2022/11/15 05:05:38;;;;;;;2.83;1.97;;;;;;;;;;4925076;28;20441;-54
2022/11/15 05:08:04;;;;;;;4.20;2.23;;;;;;;;;;4948586;28;20438;-55
2022/11/15 05:10:30;;;;;;;3.37;2.60;;;;;;;;;;4938277;28;20449;-55
2022/11/15 05:12:56;;;;;;;3.53;2.50;;;;;;;;;;4953309;28;20451;-54
2022/11/15 05:15:22;;;;;;;5.13;2.60;;;;;;;;;;4945246;28;20517;-54
2022/11/15 05:17:48;;;;;;;3.00;2.17;;;;;;;;;;4944547;28;20579;-55
2022/11/15 05:20:14;;;;;;;4.30;2.50;;;;;;;;;;4929592;28;20441;-54
2022/11/15 05:22:40;;;;;;;3.57;2.50;;;;;;;;;;4938531;28;20480;-54
2022/11/15 05:25:06;;;;;;;2.37;1.97;;;;;;;;;;4953630;28;20434;-54
2022/11/15 05:27:33;;;;;;;5.10;2.30;;;;;;;;;;4954558;28;20434;-54
2022/11/15 05:29:59;;;;;;;3.60;2.10;;;;;;;;;;4959574;28;20458;-54
2022/11/15 05:32:25;;;;;;;2.97;2.00;;;;;;;;;;4954073;28;20429;-54
2022/11/15 05:34:51;;;;;;;7.37;2.33;;;;;;;;;;4942673;28;20478;-54
2022/11/15 05:37:16;;;;;;;5.40;1.77;;;;;;;;;;4934656;28;20469;-55
2022/11/15 05:39:42;;;;;;;2.40;1.63;;;;;;;;;;4958009;28;20449;-54
2022/11/15 05:42:10;;;;;;;4.33;2.17;;;;;;;;;;4919298;28;20473;-55
2022/11/15 05:44:36;;;;;;;4.57;2.10;;;;;;;;;;4958354;28;20442;-54
2022/11/15 05:47:02;;;;;;;3.90;2.43;;;;;;;;;;4950777;28;20506;-54
2022/11/15 05:49:29;;;;;;;2.50;2.30;;;;;;;;;;4953154;28;20525;-55
2022/11/15 05:51:55;;;;;;;3.30;2.90;;;;;;;;;;4955150;28;20472;-55
2022/11/15 05:54:21;;;;;;;3.53;2.13;;;;;;;;;;4928824;28;21454;-53
2022/11/15 05:56:47;;;;;;;3.93;2.10;;;;;;;;;;4949356;28;20473;-54
2022/11/15 05:59:13;;;;;;;2.87;1.80;;;;;;;;;;4939454;28;20530;-54
2022/11/15 06:01:39;;;;;;;2.37;2.00;;;;;;;;;;4942916;28;20488;-54
2022/11/15 06:04:05;;;;;;;3.23;2.40;;;;;;;;;;4944516;28;20635;-55
2022/11/15 06:06:31;;;;;;;3.27;2.33;;;;;;;;;;4959912;28;20445;-54
2022/11/15 06:08:57;;;;;;;5.90;2.50;;;;;;;;;;4955830;28;20430;-54
2022/11/15 06:11:23;;;;;;;2.13;1.93;;;;;;;;;;4965163;28;20430;-54
2022/11/15 06:13:49;;;;;;;5.90;2.60;;;;;;;;;;4942399;28;21285;-55
2022/11/15 06:16:15;;;;;;;4.30;2.27;;;;;;;;;;4929114;28;20464;-53
2022/11/15 06:18:41;;;;;;;3.27;2.97;;;;;;;;;;4957303;28;20923;-56
2022/11/15 06:21:07;;;;;;;4.10;2.27;;;;;;;;;;4958865;28;20448;-55
2022/11/15 06:23:33;;;;;;;3.50;2.43;;;;;;;;;;4962676;28;20474;-55
2022/11/15 06:25:59;;;;;;;3.17;2.20;;;;;;;;;;4956970;28;21528;-58
2022/11/15 06:28:28;;;;;;;2.63;2.27;;;;;;;;;;4965520;28;20443;-55
2022/11/15 06:30:54;;;;;;;4.07;1.90;;;;;;;;;;4937539;28;20453;-58
2022/11/15 06:33:20;;;;;;;3.90;3.50;;;;;;;;;;4933619;28;20446;-55
2022/11/15 06:35:46;;;;;;;3.30;2.13;;;;;;;;;;4962263;28;20585;-55
2022/11/15 06:38:12;;;;;;;4.87;2.57;;;;;;;;;;4940149;28;20490;-55
2022/11/15 06:40:39;;;;;;;3.77;2.23;;;;;;;;;;4970319;28;20426;-56
2022/11/15 06:43:05;;;;;;;2.63;2.07;;;;;;;;;;4939926;28;21608;-55
2022/11/15 06:45:32;;;;;;;3.87;2.70;;;;;;;;;;4955529;28;20450;-59
2022/11/15 06:47:58;;;;;;;8.03;2.90;;;;;;;;;;4903145;28;20536;-54
2022/11/15 06:50:24;;;;;;;5.80;2.90;;;;;;;;;;4950160;28;20540;-55
2022/11/15 06:52:50;;;;;;;9.20;3.10;;;;;;;;;;4949539;28;20558;-55
2022/11/15 06:55:16;;;;;;;2.83;2.20;;;;;;;;;;4961346;28;20848;-55
2022/11/15 06:57:51;;;;;;;6.60;2.93;;;;;;;;;;4947804;28;20433;-55
2022/11/15 07:00:21;;;;;;;3.83;2.40;;;;;;;;;;4949659;28;20450;-55
2022/11/15 07:02:47;;;;;;;3.03;2.73;;;;;;;;;;4941576;28;20565;-55
2022/11/15 07:05:13;;;;;;;4.73;3.80;;;;;;;;;;4945076;28;20441;-55
2022/11/15 07:07:39;;;;;;;4.43;3.30;;;;;;;;;;4947791;28;20458;-55
2022/11/15 07:10:05;;;;;;;4.23;2.93;;;;;;;;;;4944987;28;20442;-56
2022/11/15 07:12:31;;;;;;;6.90;2.70;;;;;;;;;;4957853;28;20448;-56
2022/11/15 07:14:57;;;;;;;5.30;3.43;;;;;;;;;;4957946;28;21017;-56
2022/11/15 07:17:24;;;;;;;3.43;2.93;;;;;;;;;;4954449;28;20452;-59
2022/11/15 07:19:50;;;;;;;3.13;2.80;;;;;;;;;;4923624;28;20974;-56
2022/11/15 07:22:16;;;;;;;3.73;2.83;;;;;;;;;;4965459;28;20477;-55
2022/11/15 07:24:42;;;;;;;6.40;3.30;;;;;;;;;;4958240;28;20536;-55
2022/11/15 07:27:08;;;;;;;5.40;2.87;;;;;;;;;;4963268;28;20968;-57
2022/11/15 07:29:34;;;;;;;3.67;3.27;;;;;;;;;;4943232;28;20541;-56
2022/11/15 07:31:59;;;;;;;5.10;3.17;;;;;;;;;;4961881;28;20449;-56
2022/11/15 07:34:26;;;;;;;3.57;2.70;;;;;;;;;;4937760;28;20525;-55
2022/11/15 07:36:51;;;;;;;4.77;2.67;;;;;;;;;;4967590;28;20434;-56
2022/11/15 07:39:17;;;;;;;4.67;2.73;;;;;;;;;;4913123;28;23022;-56
2022/11/15 07:41:44;;;;;;;8.07;2.97;;;;;;;;;;4966089;28;20905;-56
2022/11/15 07:44:10;;;;;;;4.97;3.40;;;;;;;;;;4963078;28;20429;-55
2022/11/15 07:46:36;;;;;;;3.57;2.67;;;;;;;;;;4947741;28;22746;-55
2022/11/15 07:49:11;;;;;;;4.03;2.57;;;;;;;;;;4925141;28;20478;-55
2022/11/15 07:51:37;;;;;;;3.40;2.60;;;;;;;;;;4951706;28;20442;-55
2022/11/15 07:54:03;;;;;;;2.70;2.10;;;;;;;;;;4953763;28;20479;-56
2022/11/15 07:56:29;;;;;;;2.97;2.30;;;;;;;;;;4947670;28;23433;-56
2022/11/15 07:58:55;;;;;;;4.10;3.37;;;;;;;;;;4944637;28;20446;-54
2022/11/15 08:01:21;;;;;;;4.40;3.27;;;;;;;;;;4962177;28;20474;-57
2022/11/15 08:03:47;;;;;;;2.77;2.30;;;;;;;;;;4944661;28;20473;-56
2022/11/15 08:06:13;;;;;;;5.07;2.67;;;;;;;;;;4955540;28;20445;-59
2022/11/15 08:08:39;;;;;;;3.40;2.27;;;;;;;;;;4928285;28;20434;-56
2022/11/15 08:11:05;;;;;;;2.50;1.73;;;;;;;;;;4960462;28;20467;-58
2022/11/15 08:13:31;;;;;;;3.10;2.27;;;;;;;;;;4929767;28;20452;-56
2022/11/15 08:16:00;;;;;;;3.63;1.90;;;;;;;;;;4960362;28;20983;-56
2022/11/15 08:18:26;;;;;;;2.83;1.93;;;;;;;;;;4938155;28;20453;-59
2022/11/15 08:20:52;;;;;;;3.00;2.10;;;;;;;;;;4951464;28;20934;-56
2022/11/15 08:23:18;;;;;;;4.33;2.13;;;;;;;;;;4925033;28;20482;-57
2022/11/15 08:25:44;;;;;;;5.60;2.63;;;;;;;;;;4961827;28;20564;-54
2022/11/15 08:28:10;;;;;;;3.37;2.73;;;;;;;;;;4936227;28;21114;-58
2022/11/15 08:30:41;;;;;;;3.40;2.60;;;;;;;;;;4958778;28;20970;-56
2022/11/15 08:33:09;;;;;;;2.23;1.70;;;;;;;;;;4944251;28;20606;-58
2022/11/15 08:35:35;;;;;;;3.73;2.60;;;;;;;;;;4941937;28;20444;-57
2022/11/15 08:38:01;;;;;;;3.33;1.90;;;;;;;;;;4931783;28;20442;-56
2022/11/15 08:40:27;;;;;;;3.60;1.70;;;;;;;;;;4955716;28;20477;-59
2022/11/15 08:42:53;;;;;;;3.20;1.90;;;;;;;;;;4931100;28;20509;-58
2022/11/15 08:45:19;;;;;;;3.40;2.03;;;;;;;;;;4961392;28;20454;-55
2022/11/15 08:47:45;;;;;;;4.03;1.97;;;;;;;;;;4933792;28;22225;-56
2022/11/15 08:50:11;;;;;;;4.57;2.27;;;;;;;;;;4953379;28;20434;-57
2022/11/15 08:52:37;;;;;;;4.97;2.00;;;;;;;;;;4913256;28;21192;-55
2022/11/15 08:55:05;;;;;;;5.17;2.30;;;;;;;;;;4951448;28;20585;-55
2022/11/15 08:57:31;;;;;;;2.90;1.73;;;;;;;;;;4967132;28;20942;-55
2022/11/15 08:59:57;;;;;;;4.17;1.70;;;;;;;;;;4933743;28;20480;-56
2022/11/15 09:02:23;;;;;;;3.77;2.00;;;;;;;;;;4958296;28;20501;-56
2022/11/15 09:04:49;;;;;;;3.03;1.87;;;;;;;;;;4958382;28;20466;-56
2022/11/15 09:07:15;;;;;;;3.20;1.93;;;;;;;;;;4961415;28;20450;-56
2022/11/15 09:09:41;;;;;;;3.00;2.27;;;;;;;;;;4937753;28;20472;-56
2022/11/15 09:12:07;;;;;;;1.87;1.40;;;;;;;;;;4968468;28;20465;-56
2022/11/15 09:14:33;;;;;;;2.17;1.80;;;;;;;;;;4925730;28;20441;-58
2022/11/15 09:16:59;;;;;;;4.00;2.00;;;;;;;;;;4967142;28;20453;-55
2022/11/15 09:19:25;;;;;;;2.97;1.80;;;;;;;;;;4945228;28;20437;-56
2022/11/15 09:21:51;;;;;;;2.37;1.80;;;;;;;;;;4965436;28;20481;-55
2022/11/15 09:24:17;;;;;;;3.40;1.97;;;;;;;;;;4926775;28;20456;-55
2022/11/15 09:26:43;;;;;;;2.07;1.77;;;;;;;;;;4972683;28;20433;-54
2022/11/15 09:29:09;;;;;;;2.40;1.50;;;;;;;;;;4941889;28;20449;-54
2022/11/15 09:31:35;;;;;;;3.13;1.80;;;;;;;;;;4966138;28;20474;-56
2022/11/15 09:34:01;;;;;;;3.73;2.50;;;;;;;;;;4955548;28;20476;-56
2022/11/15 09:36:27;;;;;;;3.20;1.67;;;;;;;;;;4965501;28;20438;-56
2022/11/15 09:38:53;;;;;;;3.07;1.67;;;;;;;;;;4919391;28;20438;-57
2022/11/15 09:41:28;;;;;;;5.60;1.97;;;;;;;;;;4955336;28;20441;-56
2022/11/15 09:44:23;;;;;;;2.77;1.80;;;;;;;;;;4940314;28;20453;-57
2022/11/15 09:46:50;;;;;;;4.77;1.90;;;;;;;;;;4941018;28;20443;-56
2022/11/15 09:49:16;;;;;;;4.73;1.90;;;;;;;;;;4939175;28;20812;-56
2022/11/15 09:51:47;;;;;;;5.73;2.50;;;;;;;;;;4946589;28;20450;-56
2022/11/15 09:54:15;;;;;;;3.40;2.10;;;;;;;;;;4962534;28;20935;-56
2022/11/15 09:56:42;;;;;;;4.87;1.90;;;;;;;;;;4959255;28;20442;-56
2022/11/15 09:59:28;;;;;;;3.90;2.20;;;;;;;;;;4902180;28;20500;-56
2022/11/15 10:01:54;;;;;;;3.00;1.70;;;;;;;;;;4947438;28;21099;-57
2022/11/15 10:04:20;;;;;;;2.67;1.80;;;;;;;;;;4961182;28;20435;-59
2022/11/15 10:07:05;;;;;;;3.77;2.10;;;;;;;;;;4962144;28;20554;-58
2022/11/15 10:09:34;;;;;;;5.77;1.80;;;;;;;;;;4942463;28;20441;-56
2022/11/15 10:12:00;;;;;;;5.30;2.43;;;;;;;;;;4956292;28;21369;-56
2022/11/15 10:14:27;;;;;;;2.13;1.77;;;;;;;;;;4936118;28;20445;-56
2022/11/15 10:17:12;;;;;;;3.23;1.57;;;;;;;;;;4964423;28;20457;-57
2022/11/15 10:19:56;;;;;;;3.17;1.93;;;;;;;;;;4943094;28;20444;-57
2022/11/15 10:22:26;;;;;;;1.97;1.73;;;;;;;;;;4930174;28;20469;-58
2022/11/15 10:24:53;;;;;;;2.60;1.53;;;;;;;;;;4945389;28;20455;-59
2022/11/15 10:27:22;;;;;;;2.07;1.83;;;;;;;;;;4918448;28;20448;-55
2022/11/15 10:29:48;;;;;;;3.50;1.50;;;;;;;;;;4932018;28;21215;-55
2022/11/15 10:32:15;;;;;;;3.87;1.73;;;;;;;;;;4938276;28;20551;-55
2022/11/15 10:34:41;;;;;;;2.50;1.73;;;;;;;;;;4937774;28;20445;-55
2022/11/15 10:37:07;;;;;;;1.70;1.20;;;;;;;;;;4959057;28;20454;-56
2022/11/15 10:39:33;;;;;;;1.90;1.70;;;;;;;;;;4940050;28;20442;-56
2022/11/15 10:41:59;;;;;;;1.70;1.40;;;;;;;;;;4964320;28;20836;-55
2022/11/15 10:44:25;;;;;;;1.93;1.50;;;;;;;;;;4924551;28;20452;-55
2022/11/15 10:46:54;;;;;;;2.30;1.30;;;;;;;;;;4951420;28;20472;-55
2022/11/15 10:49:20;;;;;;;2.10;1.33;;;;;;;;;;4951675;28;20970;-55
2022/11/15 10:51:46;;;;;;;4.03;1.63;;;;;;;;;;4957382;28;20482;-56
2022/11/15 10:54:13;;;;;;;2.90;1.80;;;;;;;;;;4931795;28;20461;-56
2022/11/15 10:56:39;;;;;;;3.77;2.20;;;;;;;;;;4961565;28;20441;-56
2022/11/15 10:59:05;;;;;;;2.70;1.57;;;;;;;;;;4905122;28;20441;-56
2022/11/15 11:01:30;;;;;;;2.70;1.60;;;;;;;;;;4961479;28;20473;-55
2022/11/15 11:04:04;;;;;;;2.23;1.33;;;;;;;;;;4960786;28;20442;-55
2022/11/15 11:06:30;;;;;;;2.47;1.30;;;;;;;;;;4960006;28;20454;-55
2022/11/15 11:08:59;;;;;;;7.60;1.60;;;;;;;;;;4945259;28;20540;-55
2022/11/15 11:11:26;;;;;;;1.80;1.40;;;;;;;;;;4966177;28;20446;-55
2022/11/15 11:13:52;;;;;;;3.37;2.43;;;;;;;;;;4967208;28;20461;-53
2022/11/15 11:16:34;;;;;;;4.40;1.90;;;;;;;;;;4965366;28;20449;-55
2022/11/15 11:19:03;;;;;;;4.17;1.90;;;;;;;;;;4925924;28;20469;-55
2022/11/15 11:21:41;;;;;;;3.07;1.80;;;;;;;;;;4958892;28;20475;-56
2022/11/15 11:24:16;;;;;;;2.70;1.70;;;;;;;;;;4937361;28;20465;-55
2022/11/15 11:26:43;;;;;;;3.07;2.13;;;;;;;;;;4945699;28;20477;-55
2022/11/15 11:29:12;;;;;;;2.47;1.67;;;;;;;;;;4941375;28;20557;-54
2022/11/15 11:31:41;;;;;;;4.07;2.33;;;;;;;;;;4954401;28;20433;-54
2022/11/15 11:34:10;;;;;;;3.13;2.83;;;;;;;;;;4922348;28;20441;-55
2022/11/15 11:36:40;;;;;;;3.80;2.47;;;;;;;;;;4963587;28;20564;-54
2022/11/15 11:39:06;;;;;;;2.87;2.00;;;;;;;;;;4908689;28;20504;-54
2022/11/15 11:41:41;;;;;;;3.17;1.57;;;;;;;;;;4939104;28;22015;-55
2022/11/15 11:44:06;;;;;;;2.67;1.50;;;;;;;;;;4965557;28;20443;-55
2022/11/15 11:46:38;;;;;;;3.60;1.60;;;;;;;;;;4956872;28;20745;-54
2022/11/15 11:49:09;;;;;;;3.90;1.93;;;;;;;;;;4965587;28;20946;-54
2022/11/15 11:51:37;;;;;;;2.80;1.43;;;;;;;;;;4923784;28;20442;-55
2022/11/15 11:54:10;;;;;;;3.73;1.70;;;;;;;;;;4944551;28;20450;-54
2022/11/15 11:56:37;;;;;;;5.00;2.07;;;;;;;;;;4936174;28;20439;-55
2022/11/15 11:59:08;;;;;;;2.63;1.70;;;;;;;;;;4920903;28;20446;-54
2022/11/15 12:01:38;;;;;;;2.93;1.50;;;;;;;;;;4954360;28;20469;-55
2022/11/15 12:04:06;;;;;;;2.60;1.20;;;;;;;;;;4955453;28;20434;-55
2022/11/15 12:06:51;;;;;;;2.90;1.33;;;;;;;;;;4954817;28;20447;-55
2022/11/15 12:09:21;;;;;;;4.23;1.80;;;;;;;;;;4927316;28;20959;-55
2022/11/15 12:11:52;;;;;;;2.10;1.37;;;;;;;;;;4953803;28;20440;-54
2022/11/15 12:14:38;;;;;;;3.10;1.30;;;;;;;;;;4950516;28;20430;-54
2022/11/15 12:17:04;;;;;;;4.80;1.67;;;;;;;;;;4955166;28;20437;-55
2022/11/15 12:19:30;;;;;;;2.40;1.30;;;;;;;;;;4962953;28;20439;-57
2022/11/15 12:22:01;;;;;;;2.00;1.10;;;;;;;;;;4941772;28;21517;-56
2022/11/15 12:24:42;;;;;;;2.90;1.77;;;;;;;;;;4943570;28;20958;-56
2022/11/15 12:27:16;;;;;;;3.00;1.67;;;;;;;;;;4934242;28;20452;-57
2022/11/15 12:29:43;;;;;;;5.53;1.40;;;;;;;;;;4958082;28;20939;-56
2022/11/15 12:32:23;;;;;;;4.77;2.97;;;;;;;;;;4939488;28;20437;-56
2022/11/15 12:34:49;;;;;;;4.63;1.90;;;;;;;;;;4957161;28;20449;-57
2022/11/15 12:37:34;;;;;;;3.97;2.07;;;;;;;;;;4920941;28;20445;-55
2022/11/15 12:40:03;;;;;;;4.00;2.33;;;;;;;;;;4960200;28;20466;-53
2022/11/15 12:42:29;;;;;;;5.40;2.13;;;;;;;;;;4912112;28;21047;-55
2022/11/15 12:45:01;;;;;;;5.57;1.87;;;;;;;;;;4931537;28;21024;-55
2022/11/15 12:47:27;;;;;;;10.47;2.70;;;;;;;;;;4954772;28;20450;-55
2022/11/15 12:49:53;;;;;;;4.63;2.53;;;;;;;;;;4946906;28;20444;-55
2022/11/15 12:52:19;;;;;;;2.73;2.00;;;;;;;;;;4951162;28;20450;-56
2022/11/15 12:54:57;;;;;;;2.47;1.73;;;;;;;;;;4943195;28;20472;-56
2022/11/15 12:57:30;;;;;;;7.83;2.10;;;;;;;;;;4944588;28;20529;-55
2022/11/15 12:59:58;;;;;;;3.43;1.93;;;;;;;;;;4960066;28;20442;-55
2022/11/15 13:02:37;;;;;;;3.43;2.27;;;;;;;;;;4955900;28;20480;-56
2022/11/15 13:05:17;;;;;;;3.93;2.20;;;;;;;;;;4948823;28;20436;-55
2022/11/15 13:07:46;;;;;;;3.67;2.00;;;;;;;;;;4942702;28;20519;-55
2022/11/15 13:10:12;;;;;;;2.70;1.93;;;;;;;;;;4954132;28;20434;-55
2022/11/15 13:12:44;;;;;;;2.97;1.63;;;;;;;;;;4948061;28;23350;-54
2022/11/15 13:15:14;;;;;;;4.00;1.90;;;;;;;;;;4948044;28;20249;-54
2022/11/15 13:17:46;;;;;;;2.70;1.70;;;;;;;;;;4947911;28;21049;-54
2022/11/15 13:20:15;;;;;;;6.50;2.23;;;;;;;;;;4948200;28;20456;-56
2022/11/15 13:23:01;;;;;;;2.70;2.23;;;;;;;;;;4950951;28;20466;-54
2022/11/15 13:25:39;;;;;;;3.47;2.20;;;;;;;;;;4968775;28;20495;-54
2022/11/15 13:28:14;;;;;;;4.77;2.53;;;;;;;;;;4936996;28;20445;-56
2022/11/15 13:30:40;;;;;;;3.80;2.77;;;;;;;;;;4956686;28;20530;-57
2022/11/15 13:33:16;;;;;;;6.13;2.50;;;;;;;;;;4935161;28;20445;-56
2022/11/15 13:35:42;;;;;;;6.00;3.50;;;;;;;;;;4949286;28;20582;-57
2022/11/15 13:38:17;;;;;;;3.93;2.67;;;;;;;;;;4944246;28;20453;-57
2022/11/15 13:40:43;;;;;;;5.43;2.80;;;;;;;;;;4946352;28;20467;-57
2022/11/15 13:43:22;;;;;;;3.20;2.30;;;;;;;;;;4926181;28;20630;-56
2022/11/15 13:46:07;;;;;;;2.70;2.00;;;;;;;;;;4962763;28;20644;-58
2022/11/15 13:48:33;;;;;;;3.53;2.27;;;;;;;;;;4957520;28;20489;-57
2022/11/15 13:50:59;;;;;;;2.47;2.23;;;;;;;;;;4964384;28;20583;-57
2022/11/15 13:53:25;;;;;;;3.97;2.10;;;;;;;;;;4965534;28;20512;-56
2022/11/15 13:55:51;;;;;;;4.27;2.30;;;;;;;;;;4948314;28;20452;-58
2022/11/15 13:58:17;;;;;;;3.13;2.20;;;;;;;;;;4900884;28;20541;-56
2022/11/15 14:00:44;;;;;;;4.00;1.70;;;;;;;;;;4967250;28;20497;-56
2022/11/15 14:03:18;;;;;;;3.07;2.40;;;;;;;;;;4966988;28;20497;-57
2022/11/15 14:05:44;;;;;;;7.03;2.73;;;;;;;;;;4954529;28;20449;-56
2022/11/15 14:08:13;;;;;;;3.77;3.30;;;;;;;;;;4913249;28;20442;-56
2022/11/15 14:10:39;;;;;;;4.03;3.13;;;;;;;;;;4962034;28;22784;-57
2022/11/15 14:13:05;;;;;;;4.30;3.03;;;;;;;;;;4955920;28;20977;-56
2022/11/15 14:15:35;;;;;;;4.67;3.57;;;;;;;;;;4949510;28;20453;-61
2022/11/15 14:18:02;;;;;;;4.90;2.87;;;;;;;;;;4924351;28;21750;-56
2022/11/15 14:20:30;;;;;;;4.77;3.30;;;;;;;;;;4955826;28;20473;-57
2022/11/15 14:23:16;;;;;;;8.13;4.47;;;;;;;;;;4955264;28;20479;-56
2022/11/15 14:25:52;;;;;;;4.67;2.80;;;;;;;;;;4949365;28;20430;-56
2022/11/15 14:28:21;;;;;;;5.87;3.40;;;;;;;;;;4919723;28;21187;-55
2022/11/15 14:30:49;;;;;;;6.47;3.67;;;;;;;;;;4958817;28;20448;-56
2022/11/15 14:33:28;;;;;;;8.90;3.53;;;;;;;;;;4934396;28;21282;-54
2022/11/15 14:35:55;;;;;;;5.53;3.13;;;;;;;;;;4940550;28;20445;-55
2022/11/15 14:38:21;;;;;;;8.03;3.80;;;;;;;;;;4943104;28;20529;-54
2022/11/15 14:40:47;;;;;;;3.90;3.10;;;;;;;;;;4960951;28;20549;-55
2022/11/15 14:43:13;;;;;;;4.00;3.03;;;;;;;;;;4935061;28;20462;-56
2022/11/15 14:45:39;;;;;;;3.50;3.17;;;;;;;;;;4968278;28;20943;-57
2022/11/15 14:48:05;;;;;;;11.30;4.00;;;;;;;;;;4961061;28;20569;-55
2022/11/15 14:50:32;;;;;;;8.23;3.83;;;;;;;;;;4957304;28;20430;-57
2022/11/15 14:52:58;;;;;;;9.13;4.23;;;;;;;;;;4900101;28;20463;-56
2022/11/15 14:55:32;;;;;;;5.57;4.13;;;;;;;;;;4964860;28;20437;-57
2022/11/15 14:58:02;;;;;;;5.03;3.83;;;;;;;;;;4937434;28;20538;-57
2022/11/15 15:00:29;;;;;;;5.80;3.53;;;;;;;;;;4968703;28;20967;-55